createdAt,value
2018-12-27T00:00:04.644Z,988.73
2018-12-27T00:01:04.697Z,988.79
2018-12-27T00:02:04.737Z,988.79
2018-12-27T00:03:05.275Z,988.68
2018-12-27T00:04:05.232Z,988.84
2018-12-27T00:05:05.260Z,988.79
2018-12-27T00:06:05.312Z,988.82
2018-12-27T00:07:05.424Z,988.79
2018-12-27T00:08:06.067Z,988.79
2018-12-27T00:09:04.806Z,988.96
2018-12-27T00:10:05.148Z,988.90
2018-12-27T00:11:04.713Z,988.79
2018-12-27T00:12:05.478Z,988.73
2018-12-27T00:13:05.136Z,988.73
2018-12-27T00:14:05.373Z,988.79
2018-12-27T00:15:04.866Z,988.70
2018-12-27T00:16:04.933Z,988.73
2018-12-27T00:17:05.055Z,988.82
2018-12-27T00:18:05.346Z,988.84
2018-12-27T00:19:05.295Z,988.82
2018-12-27T00:20:05.391Z,988.79
2018-12-27T00:21:04.795Z,988.70
2018-12-27T00:22:04.996Z,988.65
2018-12-27T00:23:04.648Z,988.90
2018-12-27T00:24:05.385Z,988.68
2018-12-27T00:25:04.620Z,988.56
2018-12-27T00:26:04.659Z,988.82
2018-12-27T00:27:04.864Z,988.76
2018-12-27T00:28:05.493Z,988.70
2018-12-27T00:29:09.551Z,988.73
2018-12-27T00:30:04.967Z,988.76
2018-12-27T00:31:04.561Z,988.79
2018-12-27T00:32:05.149Z,988.79
2018-12-27T00:33:04.903Z,988.79
2018-12-27T00:34:04.960Z,988.84
2018-12-27T00:35:04.918Z,988.76
2018-12-27T00:36:04.942Z,988.70
2018-12-27T00:37:04.711Z,988.76
2018-12-27T00:38:05.012Z,988.76
2018-12-27T00:39:05.104Z,988.65
2018-12-27T00:40:05.429Z,988.73
2018-12-27T00:41:04.483Z,988.68
2018-12-27T00:42:04.981Z,988.87
2018-12-27T00:43:04.819Z,988.73
2018-12-27T00:44:04.909Z,988.59
2018-12-27T00:45:04.968Z,988.68
2018-12-27T00:46:04.572Z,988.65
2018-12-27T00:47:04.682Z,988.70
2018-12-27T00:48:04.940Z,988.65
2018-12-27T00:49:10.016Z,988.76
2018-12-27T00:50:05.590Z,988.73
2018-12-27T00:51:04.916Z,988.59
2018-12-27T00:52:05.040Z,988.65
2018-12-27T00:53:05.551Z,988.59
2018-12-27T00:54:05.109Z,988.62
2018-12-27T00:55:05.554Z,988.65
2018-12-27T00:56:04.558Z,988.65
2018-12-27T00:57:04.593Z,988.54
2018-12-27T00:58:04.631Z,988.76
2018-12-27T00:59:04.644Z,988.68
2018-12-27T01:00:05.219Z,988.79
2018-12-27T01:01:05.208Z,988.73
2018-12-27T01:02:04.789Z,988.73
2018-12-27T01:03:11.680Z,988.71
2018-12-27T01:04:05.300Z,988.79
2018-12-27T01:05:05.522Z,988.71
2018-12-27T01:06:05.134Z,988.73
2018-12-27T01:07:04.683Z,988.68
2018-12-27T01:08:05.028Z,988.68
2018-12-27T01:09:05.165Z,988.76
2018-12-27T01:10:05.114Z,988.76
2018-12-27T01:11:04.680Z,988.68
2018-12-27T01:12:05.331Z,988.62
2018-12-27T01:13:05.491Z,988.65
2018-12-27T01:14:04.497Z,988.65
2018-12-27T01:15:04.800Z,988.59
2018-12-27T01:16:05.479Z,988.62
2018-12-27T01:17:05.192Z,988.59
2018-12-27T01:18:05.318Z,988.45
2018-12-27T01:19:04.960Z,988.54
2018-12-27T01:20:05.508Z,988.68
2018-12-27T01:21:05.123Z,988.62
2018-12-27T01:22:05.368Z,988.62
2018-12-27T01:23:05.430Z,988.45
2018-12-27T01:24:04.655Z,988.62
2018-12-27T01:25:05.198Z,988.73
2018-12-27T01:26:04.567Z,988.65
2018-12-27T01:27:04.664Z,988.37
2018-12-27T01:28:04.806Z,988.57
2018-12-27T01:29:10.169Z,988.51
2018-12-27T01:30:04.631Z,988.65
2018-12-27T01:31:04.651Z,988.68
2018-12-27T01:32:04.925Z,988.45
2018-12-27T01:33:04.512Z,988.48
2018-12-27T01:34:04.690Z,988.57
2018-12-27T01:35:05.026Z,988.65
2018-12-27T01:36:05.268Z,988.65
2018-12-27T01:37:04.586Z,988.51
2018-12-27T01:38:04.655Z,988.57
2018-12-27T01:39:04.856Z,988.62
2018-12-27T01:40:05.081Z,988.57
2018-12-27T01:41:05.478Z,988.57
2018-12-27T01:42:04.950Z,988.51
2018-12-27T01:43:04.960Z,988.51
2018-12-27T01:44:05.288Z,988.57
2018-12-27T01:45:04.985Z,988.51
2018-12-27T01:46:05.490Z,988.45
2018-12-27T01:47:04.812Z,988.51
2018-12-27T01:48:04.871Z,988.51
2018-12-27T01:49:10.425Z,988.57
2018-12-27T01:50:04.950Z,988.51
2018-12-27T01:51:05.331Z,988.51
2018-12-27T01:52:04.727Z,988.40
2018-12-27T01:53:04.856Z,988.48
2018-12-27T01:54:05.004Z,988.34
2018-12-27T01:55:04.957Z,988.54
2018-12-27T01:56:05.111Z,988.48
2018-12-27T01:57:04.489Z,988.48
2018-12-27T01:58:04.760Z,988.51
2018-12-27T01:59:05.486Z,988.26
2018-12-27T02:00:04.485Z,988.45
2018-12-27T02:01:05.200Z,988.40
2018-12-27T02:02:05.476Z,988.37
2018-12-27T02:03:05.463Z,988.31
2018-12-27T02:04:05.570Z,988.57
2018-12-27T02:05:05.417Z,988.48
2018-12-27T02:06:04.802Z,988.24
2018-12-27T02:07:05.190Z,988.31
2018-12-27T02:08:05.212Z,988.40
2018-12-27T02:09:05.080Z,988.37
2018-12-27T02:10:05.047Z,988.31
2018-12-27T02:11:05.214Z,988.37
2018-12-27T02:12:05.107Z,988.34
2018-12-27T02:13:04.867Z,988.28
2018-12-27T02:14:05.213Z,988.28
2018-12-27T02:15:04.737Z,988.37
2018-12-27T02:16:04.839Z,988.26
2018-12-27T02:17:05.309Z,988.45
2018-12-27T02:18:05.412Z,988.26
2018-12-27T02:19:05.168Z,988.28
2018-12-27T02:20:05.435Z,988.28
2018-12-27T02:21:05.345Z,988.26
2018-12-27T02:22:04.932Z,988.28
2018-12-27T02:23:05.061Z,988.24
2018-12-27T02:24:05.580Z,988.31
2018-12-27T02:25:04.938Z,988.29
2018-12-27T02:26:05.158Z,988.21
2018-12-27T02:27:05.427Z,988.29
2018-12-27T02:28:05.493Z,988.21
2018-12-27T02:29:04.917Z,988.24
2018-12-27T02:30:05.134Z,988.21
2018-12-27T02:31:05.068Z,988.18
2018-12-27T02:32:04.649Z,988.24
2018-12-27T02:33:04.765Z,988.29
2018-12-27T02:34:04.768Z,988.16
2018-12-27T02:35:04.913Z,988.18
2018-12-27T02:36:05.547Z,988.07
2018-12-27T02:37:04.746Z,988.18
2018-12-27T02:38:04.785Z,988.18
2018-12-27T02:39:04.994Z,987.93
2018-12-27T02:40:05.274Z,987.96
2018-12-27T02:41:05.305Z,988.04
2018-12-27T02:42:05.579Z,987.99
2018-12-27T02:43:04.926Z,987.99
2018-12-27T02:44:05.395Z,987.99
2018-12-27T02:45:05.017Z,987.96
2018-12-27T02:46:05.054Z,987.77
2018-12-27T02:47:05.159Z,987.80
2018-12-27T02:48:05.329Z,987.83
2018-12-27T02:49:04.678Z,987.88
2018-12-27T02:50:04.864Z,987.93
2018-12-27T02:51:05.079Z,987.88
2018-12-27T02:52:04.983Z,987.96
2018-12-27T02:53:05.154Z,987.69
2018-12-27T02:54:04.920Z,987.77
2018-12-27T02:55:05.449Z,987.88
2018-12-27T02:56:04.722Z,987.83
2018-12-27T02:57:05.060Z,987.66
2018-12-27T02:58:04.973Z,987.71
2018-12-27T02:59:04.479Z,987.60
2018-12-27T03:00:05.135Z,987.69
2018-12-27T03:01:05.099Z,987.55
2018-12-27T03:02:05.327Z,987.71
2018-12-27T03:03:04.616Z,987.63
2018-12-27T03:04:05.360Z,987.57
2018-12-27T03:05:05.298Z,987.60
2018-12-27T03:06:05.249Z,987.54
2018-12-27T03:07:04.624Z,987.69
2018-12-27T03:08:09.779Z,987.52
2018-12-27T03:09:05.224Z,987.60
2018-12-27T03:10:04.887Z,987.46
2018-12-27T03:11:04.880Z,987.52
2018-12-27T03:12:05.538Z,987.43
2018-12-27T03:13:04.561Z,987.38
2018-12-27T03:14:05.078Z,987.52
2018-12-27T03:15:05.067Z,987.63
2018-12-27T03:16:05.336Z,987.54
2018-12-27T03:17:04.657Z,987.46
2018-12-27T03:18:05.179Z,987.41
2018-12-27T03:19:05.179Z,987.40
2018-12-27T03:20:05.113Z,987.46
2018-12-27T03:21:05.231Z,987.54
2018-12-27T03:22:05.504Z,987.32
2018-12-27T03:23:04.563Z,987.35
2018-12-27T03:24:04.695Z,987.38
2018-12-27T03:25:05.023Z,987.41
2018-12-27T03:26:05.035Z,987.46
2018-12-27T03:27:05.209Z,987.41
2018-12-27T03:28:05.186Z,987.29
2018-12-27T03:29:04.639Z,987.32
2018-12-27T03:30:04.866Z,987.12
2018-12-27T03:31:05.238Z,987.18
2018-12-27T03:32:04.557Z,987.38
2018-12-27T03:33:05.234Z,987.24
2018-12-27T03:34:05.071Z,987.12
2018-12-27T03:35:05.395Z,987.29
2018-12-27T03:36:05.340Z,987.29
2018-12-27T03:37:05.008Z,987.29
2018-12-27T03:38:04.968Z,987.12
2018-12-27T03:39:05.299Z,987.04
2018-12-27T03:40:04.680Z,987.07
2018-12-27T03:41:05.031Z,987.01
2018-12-27T03:42:10.219Z,987.10
2018-12-27T03:43:04.639Z,987.01
2018-12-27T03:44:05.379Z,987.10
2018-12-27T03:45:04.924Z,987.01
2018-12-27T03:46:04.646Z,987.12
2018-12-27T03:47:05.139Z,987.10
2018-12-27T03:48:05.263Z,987.12
2018-12-27T03:49:05.187Z,987.01
2018-12-27T03:50:05.350Z,986.98
2018-12-27T03:51:05.410Z,986.96
2018-12-27T03:52:04.554Z,987.04
2018-12-27T03:53:04.671Z,986.98
2018-12-27T03:54:05.118Z,987.01
2018-12-27T03:55:05.288Z,987.12
2018-12-27T03:56:04.642Z,987.01
2018-12-27T03:57:04.874Z,987.12
2018-12-27T03:58:04.992Z,986.87
2018-12-27T03:59:05.078Z,986.90
2018-12-27T04:00:05.061Z,986.98
2018-12-27T04:01:05.340Z,987.01
2018-12-27T04:02:05.144Z,987.01
2018-12-27T04:03:04.772Z,986.90
2018-12-27T04:04:05.426Z,986.82
2018-12-27T04:05:05.506Z,987.01
2018-12-27T04:06:04.494Z,987.01
2018-12-27T04:07:05.010Z,986.84
2018-12-27T04:08:05.423Z,986.87
2018-12-27T04:09:04.570Z,986.84
2018-12-27T04:10:04.886Z,986.90
2018-12-27T04:11:05.052Z,987.07
2018-12-27T04:12:05.497Z,986.82
2018-12-27T04:13:04.902Z,986.87
2018-12-27T04:14:05.197Z,986.84
2018-12-27T04:15:05.283Z,986.82
2018-12-27T04:16:05.407Z,986.87
2018-12-27T04:17:04.627Z,986.96
2018-12-27T04:18:04.797Z,986.87
2018-12-27T04:19:04.873Z,986.87
2018-12-27T04:20:05.023Z,986.79
2018-12-27T04:21:04.460Z,986.76
2018-12-27T04:22:04.532Z,986.84
2018-12-27T04:23:04.635Z,986.70
2018-12-27T04:24:04.776Z,986.87
2018-12-27T04:25:04.663Z,986.73
2018-12-27T04:26:04.774Z,986.79
2018-12-27T04:27:05.161Z,986.79
2018-12-27T04:28:05.453Z,986.82
2018-12-27T04:29:09.747Z,986.84
2018-12-27T04:30:05.206Z,986.76
2018-12-27T04:31:04.540Z,986.79
2018-12-27T04:32:05.223Z,986.76
2018-12-27T04:33:05.250Z,986.62
2018-12-27T04:34:10.007Z,986.65
2018-12-27T04:35:04.539Z,986.52
2018-12-27T04:36:04.609Z,986.62
2018-12-27T04:37:05.169Z,986.73
2018-12-27T04:38:05.165Z,986.71
2018-12-27T04:39:04.614Z,986.65
2018-12-27T04:40:04.942Z,986.62
2018-12-27T04:41:04.958Z,986.57
2018-12-27T04:42:05.081Z,986.62
2018-12-27T04:43:05.106Z,986.71
2018-12-27T04:44:05.186Z,986.79
2018-12-27T04:45:05.279Z,986.68
2018-12-27T04:46:04.618Z,986.74
2018-12-27T04:47:04.882Z,986.68
2018-12-27T04:48:04.770Z,986.68
2018-12-27T04:49:09.816Z,986.74
2018-12-27T04:50:05.260Z,986.68
2018-12-27T04:51:05.185Z,986.68
2018-12-27T04:52:04.894Z,986.71
2018-12-27T04:53:04.896Z,986.71
2018-12-27T04:54:05.558Z,986.74
2018-12-27T04:55:05.441Z,986.68
2018-12-27T04:56:04.747Z,986.74
2018-12-27T04:57:04.898Z,986.66
2018-12-27T04:58:05.499Z,986.85
2018-12-27T04:59:05.332Z,986.66
2018-12-27T05:00:04.824Z,986.68
2018-12-27T05:01:05.368Z,986.82
2018-12-27T05:02:05.320Z,986.71
2018-12-27T05:03:04.916Z,986.85
2018-12-27T05:04:04.901Z,986.82
2018-12-27T05:05:04.807Z,986.94
2018-12-27T05:06:05.344Z,986.77
2018-12-27T05:07:04.782Z,986.74
2018-12-27T05:08:05.357Z,986.69
2018-12-27T05:09:04.751Z,986.69
2018-12-27T05:10:05.035Z,986.74
2018-12-27T05:11:05.400Z,986.69
2018-12-27T05:12:05.048Z,986.60
2018-12-27T05:13:05.456Z,986.66
2018-12-27T05:14:04.993Z,986.77
2018-12-27T05:15:04.916Z,986.55
2018-12-27T05:16:05.493Z,986.74
2018-12-27T05:17:05.682Z,986.63
2018-12-27T05:18:04.689Z,986.77
2018-12-27T05:19:05.241Z,986.66
2018-12-27T05:20:05.252Z,986.71
2018-12-27T05:21:04.760Z,986.63
2018-12-27T05:22:04.848Z,986.82
2018-12-27T05:23:04.825Z,986.66
2018-12-27T05:24:05.496Z,986.69
2018-12-27T05:25:05.363Z,986.82
2018-12-27T05:26:04.896Z,986.66
2018-12-27T05:27:05.242Z,986.63
2018-12-27T05:28:04.964Z,986.63
2018-12-27T05:29:10.226Z,986.66
2018-12-27T05:30:04.607Z,986.60
2018-12-27T05:31:05.194Z,986.55
2018-12-27T05:32:05.165Z,986.60
2018-12-27T05:33:05.200Z,986.57
2018-12-27T05:34:05.454Z,986.57
2018-12-27T05:35:05.111Z,986.57
2018-12-27T05:36:05.137Z,986.52
2018-12-27T05:37:05.140Z,986.57
2018-12-27T05:38:05.221Z,986.66
2018-12-27T05:39:04.654Z,986.66
2018-12-27T05:40:05.414Z,986.63
2018-12-27T05:41:04.794Z,986.68
2018-12-27T05:42:05.302Z,986.74
2018-12-27T05:43:05.370Z,986.55
2018-12-27T05:44:05.464Z,986.66
2018-12-27T05:45:05.018Z,986.68
2018-12-27T05:46:05.619Z,986.66
2018-12-27T05:47:04.583Z,986.60
2018-12-27T05:48:04.570Z,986.71
2018-12-27T05:49:05.145Z,986.80
2018-12-27T05:50:04.703Z,986.85
2018-12-27T05:51:05.073Z,986.71
2018-12-27T05:52:05.043Z,986.66
2018-12-27T05:53:04.660Z,986.71
2018-12-27T05:54:04.739Z,986.66
2018-12-27T05:55:04.719Z,986.74
2018-12-27T05:56:05.398Z,986.53
2018-12-27T05:57:05.180Z,986.82
2018-12-27T05:58:04.498Z,986.91
2018-12-27T05:59:05.066Z,986.77
2018-12-27T06:00:04.786Z,986.71
2018-12-27T06:01:04.748Z,986.80
2018-12-27T06:02:04.877Z,986.66
2018-12-27T06:03:04.953Z,986.80
2018-12-27T06:04:05.254Z,986.82
2018-12-27T06:05:05.303Z,986.88
2018-12-27T06:06:04.922Z,986.82
2018-12-27T06:07:05.039Z,986.68
2018-12-27T06:08:04.533Z,986.88
2018-12-27T06:09:04.752Z,986.77
2018-12-27T06:10:04.697Z,986.74
2018-12-27T06:11:05.018Z,986.82
2018-12-27T06:12:04.851Z,986.91
2018-12-27T06:13:05.041Z,986.82
2018-12-27T06:14:05.533Z,986.77
2018-12-27T06:15:04.592Z,986.82
2018-12-27T06:16:04.689Z,986.88
2018-12-27T06:17:04.697Z,986.91
2018-12-27T06:18:05.199Z,986.74
2018-12-27T06:19:05.240Z,986.74
2018-12-27T06:20:04.628Z,986.85
2018-12-27T06:21:04.828Z,986.91
2018-12-27T06:22:04.796Z,986.88
2018-12-27T06:23:04.894Z,986.77
2018-12-27T06:24:05.206Z,986.68
2018-12-27T06:25:05.183Z,986.94
2018-12-27T06:26:05.136Z,986.63
2018-12-27T06:27:04.809Z,986.68
2018-12-27T06:28:05.057Z,986.82
2018-12-27T06:29:04.706Z,986.71
2018-12-27T06:30:04.577Z,986.66
2018-12-27T06:31:04.659Z,986.80
2018-12-27T06:32:04.688Z,986.60
2018-12-27T06:33:09.859Z,986.71
2018-12-27T06:34:05.220Z,986.71
2018-12-27T06:35:04.695Z,986.66
2018-12-27T06:36:05.064Z,986.71
2018-12-27T06:37:04.539Z,986.82
2018-12-27T06:38:04.599Z,986.63
2018-12-27T06:39:04.796Z,986.63
2018-12-27T06:40:04.913Z,986.82
2018-12-27T06:41:04.978Z,986.83
2018-12-27T06:42:05.374Z,986.71
2018-12-27T06:43:04.708Z,986.63
2018-12-27T06:44:04.909Z,986.80
2018-12-27T06:45:05.106Z,986.80
2018-12-27T06:46:04.786Z,986.80
2018-12-27T06:47:04.807Z,986.77
2018-12-27T06:48:04.877Z,986.74
2018-12-27T06:49:05.404Z,986.77
2018-12-27T06:50:04.785Z,986.63
2018-12-27T06:51:05.169Z,986.66
2018-12-27T06:52:05.244Z,986.86
2018-12-27T06:53:05.345Z,986.86
2018-12-27T06:54:05.369Z,986.88
2018-12-27T06:55:05.370Z,986.77
2018-12-27T06:56:05.076Z,986.97
2018-12-27T06:57:05.181Z,986.97
2018-12-27T06:58:04.584Z,986.94
2018-12-27T06:59:05.036Z,986.91
2018-12-27T07:00:05.817Z,986.86
2018-12-27T07:01:05.293Z,986.86
2018-12-27T07:02:04.606Z,986.97
2018-12-27T07:03:05.163Z,986.86
2018-12-27T07:04:04.536Z,986.83
2018-12-27T07:05:04.990Z,986.86
2018-12-27T07:06:04.530Z,987.05
2018-12-27T07:07:09.804Z,986.91
2018-12-27T07:08:05.213Z,986.86
2018-12-27T07:09:05.321Z,986.97
2018-12-27T07:10:05.065Z,986.91
2018-12-27T07:11:05.223Z,986.94
2018-12-27T07:12:04.545Z,986.88
2018-12-27T07:13:04.878Z,987.00
2018-12-27T07:14:04.822Z,986.97
2018-12-27T07:15:04.881Z,986.97
2018-12-27T07:16:05.400Z,987.00
2018-12-27T07:17:05.621Z,986.91
2018-12-27T07:18:04.842Z,986.97
2018-12-27T07:19:04.570Z,986.94
2018-12-27T07:20:05.098Z,986.94
2018-12-27T07:21:05.453Z,987.05
2018-12-27T07:22:04.722Z,987.02
2018-12-27T07:23:05.336Z,986.97
2018-12-27T07:24:04.687Z,987.02
2018-12-27T07:25:05.017Z,986.99
2018-12-27T07:26:04.586Z,986.99
2018-12-27T07:27:04.494Z,987.02
2018-12-27T07:28:04.799Z,987.05
2018-12-27T07:29:05.368Z,987.02
2018-12-27T07:30:05.182Z,987.02
2018-12-27T07:31:05.415Z,987.02
2018-12-27T07:32:04.891Z,987.05
2018-12-27T07:33:04.701Z,987.16
2018-12-27T07:34:05.169Z,987.02
2018-12-27T07:35:04.952Z,986.96
2018-12-27T07:36:05.007Z,986.99
2018-12-27T07:37:05.318Z,986.99
2018-12-27T07:38:05.199Z,987.13
2018-12-27T07:39:05.401Z,986.94
2018-12-27T07:40:04.577Z,987.13
2018-12-27T07:41:10.081Z,986.96
2018-12-27T07:42:05.487Z,987.22
2018-12-27T07:43:04.528Z,986.96
2018-12-27T07:44:05.048Z,987.07
2018-12-27T07:45:05.043Z,987.05
2018-12-27T07:46:11.372Z,987.19
2018-12-27T07:47:06.118Z,987.10
2018-12-27T07:48:04.776Z,986.93
2018-12-27T07:49:05.061Z,987.10
2018-12-27T07:50:05.093Z,986.91
2018-12-27T07:51:05.210Z,986.99
2018-12-27T07:52:05.496Z,987.05
2018-12-27T07:53:04.747Z,987.07
2018-12-27T07:54:05.111Z,987.13
2018-12-27T07:55:05.320Z,986.99
2018-12-27T07:56:05.556Z,986.85
2018-12-27T07:57:05.457Z,986.90
2018-12-27T07:58:04.537Z,986.96
2018-12-27T07:59:04.574Z,986.96
2018-12-27T08:00:05.070Z,987.04
2018-12-27T08:01:10.233Z,986.90
2018-12-27T08:02:04.724Z,986.99
2018-12-27T08:03:04.780Z,987.04
2018-12-27T08:04:04.814Z,987.04
2018-12-27T08:05:05.004Z,986.99
2018-12-27T08:06:04.792Z,986.96
2018-12-27T08:07:05.076Z,987.10
2018-12-27T08:08:05.123Z,986.93
2018-12-27T08:09:05.553Z,986.93
2018-12-27T08:10:05.997Z,986.98
2018-12-27T08:11:04.642Z,986.98
2018-12-27T08:12:05.026Z,987.01
2018-12-27T08:13:05.289Z,986.93
2018-12-27T08:14:05.346Z,986.87
2018-12-27T08:15:04.489Z,986.93
2018-12-27T08:16:05.225Z,986.93
2018-12-27T08:17:05.169Z,986.98
2018-12-27T08:18:05.447Z,986.90
2018-12-27T08:19:05.440Z,986.95
2018-12-27T08:20:04.483Z,986.98
2018-12-27T08:21:05.022Z,986.87
2018-12-27T08:22:05.087Z,986.87
2018-12-27T08:23:04.542Z,986.95
2018-12-27T08:24:04.955Z,986.84
2018-12-27T08:25:04.879Z,986.92
2018-12-27T08:26:04.958Z,986.95
2018-12-27T08:27:05.435Z,986.81
2018-12-27T08:28:04.527Z,986.75
2018-12-27T08:29:09.996Z,986.87
2018-12-27T08:30:05.540Z,987.01
2018-12-27T08:31:04.515Z,986.84
2018-12-27T08:32:04.604Z,986.89
2018-12-27T08:33:04.713Z,986.78
2018-12-27T08:34:04.787Z,986.86
2018-12-27T08:35:12.015Z,986.81
2018-12-27T08:36:04.685Z,986.84
2018-12-27T08:37:04.696Z,986.89
2018-12-27T08:38:04.917Z,986.81
2018-12-27T08:39:05.256Z,986.86
2018-12-27T08:40:05.092Z,986.86
2018-12-27T08:41:05.461Z,986.81
2018-12-27T08:42:05.118Z,986.81
2018-12-27T08:43:04.978Z,987.00
2018-12-27T08:44:04.991Z,986.86
2018-12-27T08:45:11.972Z,986.95
2018-12-27T08:46:05.102Z,986.98
2018-12-27T08:47:05.042Z,987.06
2018-12-27T08:48:05.343Z,987.06
2018-12-27T08:49:04.702Z,986.95
2018-12-27T08:50:04.952Z,986.95
2018-12-27T08:51:05.411Z,987.00
2018-12-27T08:52:04.825Z,986.92
2018-12-27T08:53:05.002Z,986.92
2018-12-27T08:54:05.481Z,986.86
2018-12-27T08:55:04.545Z,986.89
2018-12-27T08:56:04.657Z,986.81
2018-12-27T08:57:04.801Z,986.92
2018-12-27T08:58:05.227Z,986.95
2018-12-27T08:59:05.191Z,986.86
2018-12-27T09:00:04.621Z,986.89
2018-12-27T09:01:05.124Z,986.95
2018-12-27T09:02:05.693Z,987.12
2018-12-27T09:03:05.070Z,987.06
2018-12-27T09:04:04.506Z,986.95
2018-12-27T09:05:04.721Z,987.14
2018-12-27T09:06:04.891Z,987.06
2018-12-27T09:07:05.173Z,986.92
2018-12-27T09:08:05.322Z,987.00
2018-12-27T09:09:05.448Z,987.09
2018-12-27T09:10:04.770Z,987.00
2018-12-27T09:11:05.284Z,987.09
2018-12-27T09:12:05.388Z,987.11
2018-12-27T09:13:05.060Z,987.09
2018-12-27T09:14:05.296Z,987.20
2018-12-27T09:15:05.317Z,987.11
2018-12-27T09:16:05.635Z,987.14
2018-12-27T09:17:04.726Z,987.11
2018-12-27T09:18:05.320Z,987.20
2018-12-27T09:19:04.856Z,987.14
2018-12-27T09:20:05.174Z,987.17
2018-12-27T09:21:05.305Z,987.14
2018-12-27T09:22:05.447Z,987.17
2018-12-27T09:23:05.008Z,987.22
2018-12-27T09:24:05.332Z,987.11
2018-12-27T09:25:04.871Z,986.97
2018-12-27T09:26:04.703Z,987.13
2018-12-27T09:27:04.713Z,986.99
2018-12-27T09:28:05.041Z,986.99
2018-12-27T09:29:10.473Z,987.05
2018-12-27T09:30:04.925Z,987.16
2018-12-27T09:31:05.134Z,987.13
2018-12-27T09:32:05.596Z,987.05
2018-12-27T09:33:04.844Z,987.05
2018-12-27T09:34:05.076Z,987.05
2018-12-27T09:35:05.101Z,986.99
2018-12-27T09:36:05.236Z,987.02
2018-12-27T09:37:05.493Z,987.13
2018-12-27T09:38:05.599Z,986.96
2018-12-27T09:39:04.993Z,986.96
2018-12-27T09:40:04.604Z,986.96
2018-12-27T09:41:04.608Z,986.88
2018-12-27T09:42:04.817Z,986.96
2018-12-27T09:43:04.546Z,986.85
2018-12-27T09:44:05.123Z,986.96
2018-12-27T09:45:05.119Z,986.99
2018-12-27T09:46:05.290Z,986.79
2018-12-27T09:47:05.302Z,986.96
2018-12-27T09:48:05.471Z,986.82
2018-12-27T09:49:04.651Z,986.87
2018-12-27T09:50:04.947Z,986.79
2018-12-27T09:51:05.005Z,986.73
2018-12-27T09:52:05.126Z,986.79
2018-12-27T09:53:04.628Z,986.76
2018-12-27T09:54:04.597Z,986.81
2018-12-27T09:55:04.902Z,986.76
2018-12-27T09:56:04.802Z,986.81
2018-12-27T09:57:04.836Z,986.76
2018-12-27T09:58:10.256Z,986.73
2018-12-27T09:59:04.833Z,986.75
2018-12-27T10:00:04.656Z,986.64
2018-12-27T10:01:05.290Z,986.75
2018-12-27T10:02:04.482Z,986.70
2018-12-27T10:03:04.755Z,986.64
2018-12-27T10:04:05.186Z,986.84
2018-12-27T10:05:04.696Z,986.61
2018-12-27T10:06:05.038Z,986.53
2018-12-27T10:07:05.024Z,986.61
2018-12-27T10:08:05.041Z,986.58
2018-12-27T10:09:05.278Z,986.72
2018-12-27T10:10:04.963Z,986.64
2018-12-27T10:11:05.463Z,986.72
2018-12-27T10:12:05.581Z,986.63
2018-12-27T10:13:05.510Z,986.66
2018-12-27T10:14:04.962Z,986.53
2018-12-27T10:15:04.932Z,986.66
2018-12-27T10:16:05.444Z,986.60
2018-12-27T10:17:05.677Z,986.66
2018-12-27T10:18:05.016Z,986.63
2018-12-27T10:19:05.475Z,986.57
2018-12-27T10:20:04.990Z,986.60
2018-12-27T10:21:04.930Z,986.55
2018-12-27T10:22:05.188Z,986.50
2018-12-27T10:23:05.704Z,986.55
2018-12-27T10:24:04.485Z,986.52
2018-12-27T10:25:04.675Z,986.55
2018-12-27T10:26:05.152Z,986.49
2018-12-27T10:27:05.290Z,986.44
2018-12-27T10:28:04.580Z,986.49
2018-12-27T10:29:04.716Z,986.32
2018-12-27T10:30:05.419Z,986.46
2018-12-27T10:31:05.303Z,986.46
2018-12-27T10:32:04.849Z,986.46
2018-12-27T10:33:05.630Z,986.43
2018-12-27T10:34:05.137Z,986.46
2018-12-27T10:35:05.108Z,986.59
2018-12-27T10:36:04.593Z,986.35
2018-12-27T10:37:05.487Z,986.46
2018-12-27T10:38:04.614Z,986.43
2018-12-27T10:39:05.051Z,986.40
2018-12-27T10:40:04.686Z,986.56
2018-12-27T10:41:04.734Z,986.37
2018-12-27T10:42:05.373Z,986.48
2018-12-27T10:43:04.538Z,986.45
2018-12-27T10:44:04.572Z,986.31
2018-12-27T10:45:04.717Z,986.31
2018-12-27T10:46:04.603Z,986.37
2018-12-27T10:47:04.638Z,986.40
2018-12-27T10:48:04.840Z,986.23
2018-12-27T10:49:11.096Z,986.37
2018-12-27T10:50:04.609Z,986.31
2018-12-27T10:51:05.133Z,986.34
2018-12-27T10:52:04.776Z,986.31
2018-12-27T10:53:04.924Z,986.28
2018-12-27T10:54:05.814Z,986.25
2018-12-27T10:55:04.953Z,986.25
2018-12-27T10:56:05.296Z,986.25
2018-12-27T10:57:05.449Z,986.25
2018-12-27T10:58:04.672Z,986.28
2018-12-27T10:59:04.641Z,986.22
2018-12-27T11:00:04.656Z,986.30
2018-12-27T11:01:05.089Z,986.13
2018-12-27T11:02:04.847Z,986.22
2018-12-27T11:03:05.697Z,986.13
2018-12-27T11:04:04.558Z,986.22
2018-12-27T11:05:04.637Z,986.05
2018-12-27T11:06:04.695Z,986.13
2018-12-27T11:07:04.765Z,986.08
2018-12-27T11:08:05.322Z,986.10
2018-12-27T11:09:04.742Z,986.04
2018-12-27T11:10:05.334Z,986.02
2018-12-27T11:11:04.694Z,986.13
2018-12-27T11:12:04.797Z,986.04
2018-12-27T11:13:04.816Z,986.18
2018-12-27T11:14:04.868Z,985.96
2018-12-27T11:15:05.118Z,986.10
2018-12-27T11:16:05.036Z,986.01
2018-12-27T11:17:04.799Z,986.10
2018-12-27T11:18:04.939Z,986.04
2018-12-27T11:19:05.138Z,985.96
2018-12-27T11:20:05.196Z,985.93
2018-12-27T11:21:05.414Z,985.84
2018-12-27T11:22:04.565Z,985.84
2018-12-27T11:23:04.597Z,985.95
2018-12-27T11:24:05.205Z,985.98
2018-12-27T11:25:04.814Z,985.87
2018-12-27T11:26:05.221Z,985.95
2018-12-27T11:27:05.305Z,985.81
2018-12-27T11:28:05.667Z,985.87
2018-12-27T11:29:09.667Z,985.73
2018-12-27T11:30:05.128Z,985.75
2018-12-27T11:31:05.474Z,985.64
2018-12-27T11:32:04.847Z,985.89
2018-12-27T11:33:05.085Z,985.75
2018-12-27T11:34:05.382Z,985.73
2018-12-27T11:35:04.909Z,985.72
2018-12-27T11:36:04.873Z,985.67
2018-12-27T11:37:06.564Z,985.61
2018-12-27T11:38:05.165Z,985.75
2018-12-27T11:39:05.397Z,985.69
2018-12-27T11:40:05.719Z,985.78
2018-12-27T11:41:04.942Z,985.69
2018-12-27T11:42:04.572Z,985.69
2018-12-27T11:43:04.516Z,985.52
2018-12-27T11:44:04.639Z,985.55
2018-12-27T11:45:04.896Z,985.52
2018-12-27T11:46:05.545Z,985.61
2018-12-27T11:47:04.482Z,985.58
2018-12-27T11:48:04.612Z,985.55
2018-12-27T11:49:04.662Z,985.49
2018-12-27T11:50:04.798Z,985.55
2018-12-27T11:51:05.370Z,985.52
2018-12-27T11:52:05.319Z,985.44
2018-12-27T11:53:04.917Z,985.52
2018-12-27T11:54:05.241Z,985.55
2018-12-27T11:55:05.501Z,985.55
2018-12-27T11:56:05.106Z,985.43
2018-12-27T11:57:10.573Z,985.46
2018-12-27T11:58:05.083Z,985.57
2018-12-27T11:59:05.244Z,985.46
2018-12-27T12:00:05.422Z,985.30
2018-12-27T12:01:05.462Z,985.52
2018-12-27T12:02:04.764Z,985.46
2018-12-27T12:03:05.173Z,985.37
2018-12-27T12:04:04.899Z,985.30
2018-12-27T12:05:05.518Z,985.30
2018-12-27T12:06:04.563Z,985.40
2018-12-27T12:07:04.872Z,985.51
2018-12-27T12:08:04.927Z,985.21
2018-12-27T12:09:05.074Z,985.30
2018-12-27T12:10:05.453Z,985.29
2018-12-27T12:11:04.871Z,985.27
2018-12-27T12:12:04.723Z,985.34
2018-12-27T12:13:05.226Z,985.21
2018-12-27T12:14:04.896Z,985.40
2018-12-27T12:15:05.448Z,985.29
2018-12-27T12:16:04.603Z,985.24
2018-12-27T12:17:04.761Z,985.26
2018-12-27T12:18:04.945Z,985.24
2018-12-27T12:19:05.362Z,985.18
2018-12-27T12:20:04.724Z,985.15
2018-12-27T12:21:04.754Z,985.21
2018-12-27T12:22:04.869Z,985.37
2018-12-27T12:23:04.822Z,985.23
2018-12-27T12:24:05.305Z,985.21
2018-12-27T12:25:04.628Z,985.34
2018-12-27T12:26:04.737Z,985.26
2018-12-27T12:27:05.433Z,985.12
2018-12-27T12:28:05.362Z,985.26